sensor_id;sensor_type;location;lat;lon;timestamp;temperature;humidity
23713;DHT22;12035;49.978;8.298;2023-01-24T00:01:19;5.10;74.40
23713;DHT22;12035;49.978;8.298;2023-01-24T00:06:18;5.10;74.40
23713;DHT22;12035;49.978;8.298;2023-01-24T00:11:15;5.10;74.40
23713;DHT22;12035;49.978;8.298;2023-01-24T00:16:15;5.10;74.50
23713;DHT22;12035;49.978;8.298;2023-01-24T00:21:14;5.00;74.50
23713;DHT22;12035;49.978;8.298;2023-01-24T00:26:13;5.00;74.60
23713;DHT22;12035;49.978;8.298;2023-01-24T00:31:11;5.00;74.60
23713;DHT22;12035;49.978;8.298;2023-01-24T00:36:11;5.00;74.60
23713;DHT22;12035;49.978;8.298;2023-01-24T00:41:08;5.00;74.50
23713;DHT22;12035;49.978;8.298;2023-01-24T00:46:06;5.00;74.40
23713;DHT22;12035;49.978;8.298;2023-01-24T00:51:06;5.00;74.30
23713;DHT22;12035;49.978;8.298;2023-01-24T00:56:03;5.00;74.40
23713;DHT22;12035;49.978;8.298;2023-01-24T01:01:01;5.00;74.40
23713;DHT22;12035;49.978;8.298;2023-01-24T01:06:00;5.00;74.30
23713;DHT22;12035;49.978;8.298;2023-01-24T01:10:59;5.00;74.30
23713;DHT22;12035;49.978;8.298;2023-01-24T01:16:01;5.00;74.30
23713;DHT22;12035;49.978;8.298;2023-01-24T01:20:59;5.00;74.30
23713;DHT22;12035;49.978;8.298;2023-01-24T01:26:02;5.10;74.30
23713;DHT22;12035;49.978;8.298;2023-01-24T01:31:00;5.00;74.10
23713;DHT22;12035;49.978;8.298;2023-01-24T01:35:58;5.00;74.90
23713;DHT22;12035;49.978;8.298;2023-01-24T01:40:56;5.00;74.10
23713;DHT22;12035;49.978;8.298;2023-01-24T01:45:58;5.00;74.10
23713;DHT22;12035;49.978;8.298;2023-01-24T01:51:06;5.00;74.10
23713;DHT22;12035;49.978;8.298;2023-01-24T01:56:12;5.00;74.80
23713;DHT22;12035;49.978;8.298;2023-01-24T02:01:15;5.00;74.10
23713;DHT22;12035;49.978;8.298;2023-01-24T02:06:23;5.00;73.90
23713;DHT22;12035;49.978;8.298;2023-01-24T02:11:27;5.00;74.00
23713;DHT22;12035;49.978;8.298;2023-01-24T02:16:35;5.00;73.90
23713;DHT22;12035;49.978;8.298;2023-01-24T02:21:33;5.00;73.80
23713;DHT22;12035;49.978;8.298;2023-01-24T02:26:32;5.00;73.80
23713;DHT22;12035;49.978;8.298;2023-01-24T02:31:53;4.90;73.80
23713;DHT22;12035;49.978;8.298;2023-01-24T02:36:53;4.90;74.10
23713;DHT22;12035;49.978;8.298;2023-01-24T02:41:56;4.90;74.00
23713;DHT22;12035;49.978;8.298;2023-01-24T02:46:56;4.90;74.10
23713;DHT22;12035;49.978;8.298;2023-01-24T02:51:53;4.90;74.10
23713;DHT22;12035;49.978;8.298;2023-01-24T02:57:10;4.80;74.20
23713;DHT22;12035;49.978;8.298;2023-01-24T03:02:24;4.90;74.30
23713;DHT22;12035;49.978;8.298;2023-01-24T03:07:21;4.90;74.40
23713;DHT22;12035;49.978;8.298;2023-01-24T03:12:20;4.80;74.40
23713;DHT22;12035;49.978;8.298;2023-01-24T03:17:35;4.80;74.50
23713;DHT22;12035;49.978;8.298;2023-01-24T03:22:50;4.80;74.60
23713;DHT22;12035;49.978;8.298;2023-01-24T03:28:07;4.80;75.00
23713;DHT22;12035;49.978;8.298;2023-01-24T03:33:21;4.70;74.90
23713;DHT22;12035;49.978;8.298;2023-01-24T03:38:36;4.70;75.10
23713;DHT22;12035;49.978;8.298;2023-01-24T03:43:52;4.70;75.20
23713;DHT22;12035;49.978;8.298;2023-01-24T03:48:49;4.80;75.30
23713;DHT22;12035;49.978;8.298;2023-01-24T03:53:47;4.70;75.40
23713;DHT22;12035;49.978;8.298;2023-01-24T03:58:44;4.60;75.70
23713;DHT22;12035;49.978;8.298;2023-01-24T04:03:43;4.60;75.90
23713;DHT22;12035;49.978;8.298;2023-01-24T04:08:40;4.60;76.10
23713;DHT22;12035;49.978;8.298;2023-01-24T04:13:37;4.60;76.10
23713;DHT22;12035;49.978;8.298;2023-01-24T04:18:35;4.50;76.20
23713;DHT22;12035;49.978;8.298;2023-01-24T04:23:33;4.60;76.10
23713;DHT22;12035;49.978;8.298;2023-01-24T04:28:32;4.60;76.20
23713;DHT22;12035;49.978;8.298;2023-01-24T04:33:29;4.60;76.10
23713;DHT22;12035;49.978;8.298;2023-01-24T04:38:27;4.60;76.20
23713;DHT22;12035;49.978;8.298;2023-01-24T04:43:25;4.60;76.40
23713;DHT22;12035;49.978;8.298;2023-01-24T04:48:23;4.60;76.20
23713;DHT22;12035;49.978;8.298;2023-01-24T04:53:19;4.60;76.30
23713;DHT22;12035;49.978;8.298;2023-01-24T04:58:17;4.60;76.30
23713;DHT22;12035;49.978;8.298;2023-01-24T05:03:16;4.60;76.30
23713;DHT22;12035;49.978;8.298;2023-01-24T05:08:13;4.60;76.00
23713;DHT22;12035;49.978;8.298;2023-01-24T05:13:10;4.60;76.00
23713;DHT22;12035;49.978;8.298;2023-01-24T05:18:08;4.60;75.90
23713;DHT22;12035;49.978;8.298;2023-01-24T05:23:07;4.70;75.90
23713;DHT22;12035;49.978;8.298;2023-01-24T05:28:04;4.70;76.50
23713;DHT22;12035;49.978;8.298;2023-01-24T05:33:01;4.70;75.60
23713;DHT22;12035;49.978;8.298;2023-01-24T05:37:59;4.60;75.50
23713;DHT22;12035;49.978;8.298;2023-01-24T05:42:58;4.60;75.50
23713;DHT22;12035;49.978;8.298;2023-01-24T05:47:58;4.70;75.60
23713;DHT22;12035;49.978;8.298;2023-01-24T05:52:55;4.70;75.60
23713;DHT22;12035;49.978;8.298;2023-01-24T05:57:52;4.80;75.60
23713;DHT22;12035;49.978;8.298;2023-01-24T06:02:51;4.80;75.60
23713;DHT22;12035;49.978;8.298;2023-01-24T06:07:48;4.80;75.50
23713;DHT22;12035;49.978;8.298;2023-01-24T06:12:45;4.70;75.20
23713;DHT22;12035;49.978;8.298;2023-01-24T06:17:42;4.70;75.20
23713;DHT22;12035;49.978;8.298;2023-01-24T06:22:45;4.80;75.20
23713;DHT22;12035;49.978;8.298;2023-01-24T06:27:47;4.80;75.10
23713;DHT22;12035;49.978;8.298;2023-01-24T06:32:56;4.80;75.10
23713;DHT22;12035;49.978;8.298;2023-01-24T06:38:00;4.80;75.10
23713;DHT22;12035;49.978;8.298;2023-01-24T06:42:58;4.80;75.00
23713;DHT22;12035;49.978;8.298;2023-01-24T06:47:56;4.80;74.90
23713;DHT22;12035;49.978;8.298;2023-01-24T06:52:52;4.90;75.00
23713;DHT22;12035;49.978;8.298;2023-01-24T06:57:55;4.90;74.90
23713;DHT22;12035;49.978;8.298;2023-01-24T07:02:59;4.90;74.90
23713;DHT22;12035;49.978;8.298;2023-01-24T07:07:56;4.90;74.90
23713;DHT22;12035;49.978;8.298;2023-01-24T07:12:55;4.90;74.90
23713;DHT22;12035;49.978;8.298;2023-01-24T07:17:52;5.00;74.90
23713;DHT22;12035;49.978;8.298;2023-01-24T07:22:50;5.00;74.80
23713;DHT22;12035;49.978;8.298;2023-01-24T07:27:48;5.00;74.70
23713;DHT22;12035;49.978;8.298;2023-01-24T07:32:47;5.00;74.70
23713;DHT22;12035;49.978;8.298;2023-01-24T07:37:44;4.90;74.70
23713;DHT22;12035;49.978;8.298;2023-01-24T07:42:41;4.90;74.80
23713;DHT22;12035;49.978;8.298;2023-01-24T07:47:38;5.00;74.70
23713;DHT22;12035;49.978;8.298;2023-01-24T07:52:37;5.00;74.60
23713;DHT22;12035;49.978;8.298;2023-01-24T07:57:34;5.00;74.60
23713;DHT22;12035;49.978;8.298;2023-01-24T08:02:31;5.00;74.70
23713;DHT22;12035;49.978;8.298;2023-01-24T08:07:29;5.00;74.70
23713;DHT22;12035;49.978;8.298;2023-01-24T08:12:27;5.10;74.70
23713;DHT22;12035;49.978;8.298;2023-01-24T08:17:24;5.10;74.70
23713;DHT22;12035;49.978;8.298;2023-01-24T08:22:21;5.20;74.70
23713;DHT22;12035;49.978;8.298;2023-01-24T08:27:19;5.20;74.70
23713;DHT22;12035;49.978;8.298;2023-01-24T08:32:17;5.30;74.80
23713;DHT22;12035;49.978;8.298;2023-01-24T08:37:14;5.30;74.80
23713;DHT22;12035;49.978;8.298;2023-01-24T08:42:12;5.30;74.80
23713;DHT22;12035;49.978;8.298;2023-01-24T08:47:09;5.30;74.70
23713;DHT22;12035;49.978;8.298;2023-01-24T08:52:09;5.30;74.60
23713;DHT22;12035;49.978;8.298;2023-01-24T08:57:06;5.30;74.60
23713;DHT22;12035;49.978;8.298;2023-01-24T09:02:04;5.30;74.60
23713;DHT22;12035;49.978;8.298;2023-01-24T09:07:01;5.30;74.80
23713;DHT22;12035;49.978;8.298;2023-01-24T09:11:59;5.40;74.90
23713;DHT22;12035;49.978;8.298;2023-01-24T09:16:57;5.40;74.90
23713;DHT22;12035;49.978;8.298;2023-01-24T09:21:54;5.40;74.90
23713;DHT22;12035;49.978;8.298;2023-01-24T09:26:52;5.40;74.80
23713;DHT22;12035;49.978;8.298;2023-01-24T09:31:50;5.40;74.80
23713;DHT22;12035;49.978;8.298;2023-01-24T09:36:50;5.40;74.80
23713;DHT22;12035;49.978;8.298;2023-01-24T09:41:56;5.40;74.70
23713;DHT22;12035;49.978;8.298;2023-01-24T09:46:58;5.40;74.70
23713;DHT22;12035;49.978;8.298;2023-01-24T09:51:58;5.40;74.60
23713;DHT22;12035;49.978;8.298;2023-01-24T09:56:56;5.40;74.40
23713;DHT22;12035;49.978;8.298;2023-01-24T10:01:54;5.40;74.50
23713;DHT22;12035;49.978;8.298;2023-01-24T10:12:47;5.40;74.40
23713;DHT22;12035;49.978;8.298;2023-01-24T10:18:22;5.40;74.30
23713;DHT22;12035;49.978;8.298;2023-01-24T10:23:29;5.40;74.20
23713;DHT22;12035;49.978;8.298;2023-01-24T10:28:33;5.40;74.10
23713;DHT22;12035;49.978;8.298;2023-01-24T10:33:34;5.40;74.00
23713;DHT22;12035;49.978;8.298;2023-01-24T10:38:35;5.50;73.90
23713;DHT22;12035;49.978;8.298;2023-01-24T10:43:33;5.40;73.50
23713;DHT22;12035;49.978;8.298;2023-01-24T10:48:37;5.40;73.50
23713;DHT22;12035;49.978;8.298;2023-01-24T10:53:44;5.50;73.60
23713;DHT22;12035;49.978;8.298;2023-01-24T10:58:43;5.50;73.50
23713;DHT22;12035;49.978;8.298;2023-01-24T11:03:52;5.50;73.50
23713;DHT22;12035;49.978;8.298;2023-01-24T11:08:55;5.60;73.60
23713;DHT22;12035;49.978;8.298;2023-01-24T11:14:00;5.60;73.50
23713;DHT22;12035;49.978;8.298;2023-01-24T11:18:59;5.60;73.40
23713;DHT22;12035;49.978;8.298;2023-01-24T11:24:12;5.60;73.30
23713;DHT22;12035;49.978;8.298;2023-01-24T11:29:15;5.60;73.00
23713;DHT22;12035;49.978;8.298;2023-01-24T11:39:45;5.60;72.70
23713;DHT22;12035;49.978;8.298;2023-01-24T11:45:04;5.60;72.80
23713;DHT22;12035;49.978;8.298;2023-01-24T11:50:34;5.60;72.50
23713;DHT22;12035;49.978;8.298;2023-01-24T11:55:46;5.60;72.60
23713;DHT22;12035;49.978;8.298;2023-01-24T12:00:53;5.50;73.10
23713;DHT22;12035;49.978;8.298;2023-01-24T12:06:00;5.50;72.80
23713;DHT22;12035;49.978;8.298;2023-01-24T12:11:12;5.40;72.70
23713;DHT22;12035;49.978;8.298;2023-01-24T12:16:24;5.40;72.70
23713;DHT22;12035;49.978;8.298;2023-01-24T12:21:29;5.40;72.70
23713;DHT22;12035;49.978;8.298;2023-01-24T12:26:29;5.40;72.60
23713;DHT22;12035;49.978;8.298;2023-01-24T12:31:36;5.50;72.70
23713;DHT22;12035;49.978;8.298;2023-01-24T12:36:40;5.50;72.60
23713;DHT22;12035;49.978;8.298;2023-01-24T12:41:41;5.50;72.40
23713;DHT22;12035;49.978;8.298;2023-01-24T12:46:58;5.50;72.40
23713;DHT22;12035;49.978;8.298;2023-01-24T12:52:09;5.60;72.10
23713;DHT22;12035;49.978;8.298;2023-01-24T12:57:20;5.60;72.20
23713;DHT22;12035;49.978;8.298;2023-01-24T13:02:31;5.70;72.10
23713;DHT22;12035;49.978;8.298;2023-01-24T13:07:44;5.70;71.70
23713;DHT22;12035;49.978;8.298;2023-01-24T13:12:49;5.70;71.60
23713;DHT22;12035;49.978;8.298;2023-01-24T13:18:01;5.70;71.50
23713;DHT22;12035;49.978;8.298;2023-01-24T13:23:21;5.80;71.70
23713;DHT22;12035;49.978;8.298;2023-01-24T13:28:33;5.80;71.40
23713;DHT22;12035;49.978;8.298;2023-01-24T13:33:43;5.80;71.40
23713;DHT22;12035;49.978;8.298;2023-01-24T13:38:45;5.80;71.40
23713;DHT22;12035;49.978;8.298;2023-01-24T13:43:58;5.80;71.30
23713;DHT22;12035;49.978;8.298;2023-01-24T13:48:56;5.80;71.50
23713;DHT22;12035;49.978;8.298;2023-01-24T13:53:59;5.90;72.30
23713;DHT22;12035;49.978;8.298;2023-01-24T13:58:59;5.90;71.30
23713;DHT22;12035;49.978;8.298;2023-01-24T14:03:58;5.80;71.40
23713;DHT22;12035;49.978;8.298;2023-01-24T14:09:02;5.80;71.70
23713;DHT22;12035;49.978;8.298;2023-01-24T14:14:26;5.90;71.60
23713;DHT22;12035;49.978;8.298;2023-01-24T14:19:35;5.90;71.40
23713;DHT22;12035;49.978;8.298;2023-01-24T14:24:35;5.80;71.30
23713;DHT22;12035;49.978;8.298;2023-01-24T14:29:38;5.80;71.40
23713;DHT22;12035;49.978;8.298;2023-01-24T14:34:43;5.80;71.20
23713;DHT22;12035;49.978;8.298;2023-01-24T14:39:42;5.90;71.40
23713;DHT22;12035;49.978;8.298;2023-01-24T14:44:50;5.90;71.20
23713;DHT22;12035;49.978;8.298;2023-01-24T14:49:52;5.90;71.30
23713;DHT22;12035;49.978;8.298;2023-01-24T14:54:51;5.80;71.10
23713;DHT22;12035;49.978;8.298;2023-01-24T15:00:01;5.80;71.20
23713;DHT22;12035;49.978;8.298;2023-01-24T15:05:01;5.80;71.30
23713;DHT22;12035;49.978;8.298;2023-01-24T15:09:58;5.80;71.30
23713;DHT22;12035;49.978;8.298;2023-01-24T15:14:56;5.80;71.10
23713;DHT22;12035;49.978;8.298;2023-01-24T15:19:57;5.70;70.90
23713;DHT22;12035;49.978;8.298;2023-01-24T15:24:58;5.60;70.90
23713;DHT22;12035;49.978;8.298;2023-01-24T15:30:09;5.60;71.10
23713;DHT22;12035;49.978;8.298;2023-01-24T15:35:26;5.60;71.10
23713;DHT22;12035;49.978;8.298;2023-01-24T15:40:31;5.60;71.30
23713;DHT22;12035;49.978;8.298;2023-01-24T15:45:31;5.50;71.30
23713;DHT22;12035;49.978;8.298;2023-01-24T15:50:32;5.60;71.40
23713;DHT22;12035;49.978;8.298;2023-01-24T15:55:47;5.50;71.30
23713;DHT22;12035;49.978;8.298;2023-01-24T16:00:51;5.50;71.40
23713;DHT22;12035;49.978;8.298;2023-01-24T16:05:50;5.60;71.40
23713;DHT22;12035;49.978;8.298;2023-01-24T16:10:47;5.70;71.40
23713;DHT22;12035;49.978;8.298;2023-01-24T16:15:44;5.70;71.30
23713;DHT22;12035;49.978;8.298;2023-01-24T16:20:41;5.70;71.30
23713;DHT22;12035;49.978;8.298;2023-01-24T16:25:39;5.70;70.90
23713;DHT22;12035;49.978;8.298;2023-01-24T16:30:37;5.60;71.00
23713;DHT22;12035;49.978;8.298;2023-01-24T16:35:34;5.60;71.20
23713;DHT22;12035;49.978;8.298;2023-01-24T16:40:31;5.60;71.30
23713;DHT22;12035;49.978;8.298;2023-01-24T16:45:30;5.60;71.20
23713;DHT22;12035;49.978;8.298;2023-01-24T16:50:27;5.60;71.10
23713;DHT22;12035;49.978;8.298;2023-01-24T16:55:24;5.50;71.10
23713;DHT22;12035;49.978;8.298;2023-01-24T17:00:21;5.40;71.40
23713;DHT22;12035;49.978;8.298;2023-01-24T17:05:19;5.40;71.60
23713;DHT22;12035;49.978;8.298;2023-01-24T17:10:17;5.30;71.70
23713;DHT22;12035;49.978;8.298;2023-01-24T17:15:14;5.30;71.70
23713;DHT22;12035;49.978;8.298;2023-01-24T17:20:12;5.40;71.80
23713;DHT22;12035;49.978;8.298;2023-01-24T17:25:11;5.40;71.80
23713;DHT22;12035;49.978;8.298;2023-01-24T17:30:09;5.40;71.90
23713;DHT22;12035;49.978;8.298;2023-01-24T17:35:07;5.40;71.90
23713;DHT22;12035;49.978;8.298;2023-01-24T17:40:05;5.40;71.90
23713;DHT22;12035;49.978;8.298;2023-01-24T17:45:05;5.50;72.10
23713;DHT22;12035;49.978;8.298;2023-01-24T17:50:04;5.40;72.20
23713;DHT22;12035;49.978;8.298;2023-01-24T17:55:01;5.40;72.40
23713;DHT22;12035;49.978;8.298;2023-01-24T17:59:59;5.40;72.40
23713;DHT22;12035;49.978;8.298;2023-01-24T18:04:58;5.40;72.50
23713;DHT22;12035;49.978;8.298;2023-01-24T18:09:55;5.40;72.40
23713;DHT22;12035;49.978;8.298;2023-01-24T18:14:52;5.40;72.60
23713;DHT22;12035;49.978;8.298;2023-01-24T18:19:49;5.50;72.60
23713;DHT22;12035;49.978;8.298;2023-01-24T18:24:47;5.50;72.60
23713;DHT22;12035;49.978;8.298;2023-01-24T18:29:44;5.50;72.50
23713;DHT22;12035;49.978;8.298;2023-01-24T18:34:42;5.60;72.50
23713;DHT22;12035;49.978;8.298;2023-01-24T18:39:39;5.50;72.40
23713;DHT22;12035;49.978;8.298;2023-01-24T18:44:37;5.50;72.30
23713;DHT22;12035;49.978;8.298;2023-01-24T18:49:34;5.60;72.40
23713;DHT22;12035;49.978;8.298;2023-01-24T18:54:34;5.50;72.50
23713;DHT22;12035;49.978;8.298;2023-01-24T18:59:33;5.50;72.70
23713;DHT22;12035;49.978;8.298;2023-01-24T19:04:31;5.50;72.70
23713;DHT22;12035;49.978;8.298;2023-01-24T19:09:29;5.50;72.70
23713;DHT22;12035;49.978;8.298;2023-01-24T19:14:26;5.50;72.80
23713;DHT22;12035;49.978;8.298;2023-01-24T19:19:24;5.60;72.90
23713;DHT22;12035;49.978;8.298;2023-01-24T19:24:22;5.60;72.80
23713;DHT22;12035;49.978;8.298;2023-01-24T19:29:20;5.60;72.90
23713;DHT22;12035;49.978;8.298;2023-01-24T19:34:17;5.60;72.70
23713;DHT22;12035;49.978;8.298;2023-01-24T19:39:16;5.70;72.80
23713;DHT22;12035;49.978;8.298;2023-01-24T19:44:16;5.60;72.80
23713;DHT22;12035;49.978;8.298;2023-01-24T19:49:16;5.60;72.90
23713;DHT22;12035;49.978;8.298;2023-01-24T19:54:14;5.60;72.90
23713;DHT22;12035;49.978;8.298;2023-01-24T19:59:11;5.60;72.90
23713;DHT22;12035;49.978;8.298;2023-01-24T20:04:10;5.60;72.90
23713;DHT22;12035;49.978;8.298;2023-01-24T20:09:07;5.60;72.90
23713;DHT22;12035;49.978;8.298;2023-01-24T20:14:04;5.70;73.00
23713;DHT22;12035;49.978;8.298;2023-01-24T20:19:02;5.60;73.00
23713;DHT22;12035;49.978;8.298;2023-01-24T20:24:03;5.60;73.00
23713;DHT22;12035;49.978;8.298;2023-01-24T20:29:01;5.60;73.00
23713;DHT22;12035;49.978;8.298;2023-01-24T20:33:58;5.60;73.10
23713;DHT22;12035;49.978;8.298;2023-01-24T20:38:55;5.60;73.10
23713;DHT22;12035;49.978;8.298;2023-01-24T20:43:54;5.60;73.20
23713;DHT22;12035;49.978;8.298;2023-01-24T20:48:54;5.60;73.20
23713;DHT22;12035;49.978;8.298;2023-01-24T20:53:52;5.70;73.20
23713;DHT22;12035;49.978;8.298;2023-01-24T20:58:49;5.70;73.20
23713;DHT22;12035;49.978;8.298;2023-01-24T21:03:49;5.70;73.20
23713;DHT22;12035;49.978;8.298;2023-01-24T21:08:47;5.60;73.20
23713;DHT22;12035;49.978;8.298;2023-01-24T21:13:50;5.60;73.30
23713;DHT22;12035;49.978;8.298;2023-01-24T21:18:50;5.60;73.30
23713;DHT22;12035;49.978;8.298;2023-01-24T21:23:48;5.60;73.30
23713;DHT22;12035;49.978;8.298;2023-01-24T21:28:46;5.70;73.40
23713;DHT22;12035;49.978;8.298;2023-01-24T21:33:44;5.70;73.40
23713;DHT22;12035;49.978;8.298;2023-01-24T21:38:44;5.70;73.40
23713;DHT22;12035;49.978;8.298;2023-01-24T21:43:41;5.70;73.30
23713;DHT22;12035;49.978;8.298;2023-01-24T21:48:38;5.60;73.40
23713;DHT22;12035;49.978;8.298;2023-01-24T21:53:54;5.60;73.30
23713;DHT22;12035;49.978;8.298;2023-01-24T21:58:57;5.60;73.30
23713;DHT22;12035;49.978;8.298;2023-01-24T22:03:55;5.60;73.40
23713;DHT22;12035;49.978;8.298;2023-01-24T22:08:53;5.60;73.40
23713;DHT22;12035;49.978;8.298;2023-01-24T22:13:51;5.60;73.40
23713;DHT22;12035;49.978;8.298;2023-01-24T22:18:49;5.60;73.40
23713;DHT22;12035;49.978;8.298;2023-01-24T22:23:52;5.60;73.40
23713;DHT22;12035;49.978;8.298;2023-01-24T22:28:54;5.60;73.50
23713;DHT22;12035;49.978;8.298;2023-01-24T22:33:52;5.60;73.50
23713;DHT22;12035;49.978;8.298;2023-01-24T22:38:49;5.60;73.50
23713;DHT22;12035;49.978;8.298;2023-01-24T22:43:48;5.60;73.50
23713;DHT22;12035;49.978;8.298;2023-01-24T22:48:44;5.60;73.70
23713;DHT22;12035;49.978;8.298;2023-01-24T22:53:42;5.60;73.70
23713;DHT22;12035;49.978;8.298;2023-01-24T22:58:39;5.50;73.60
23713;DHT22;12035;49.978;8.298;2023-01-24T23:03:40;5.60;73.70
23713;DHT22;12035;49.978;8.298;2023-01-24T23:08:37;5.60;73.70
23713;DHT22;12035;49.978;8.298;2023-01-24T23:13:34;5.50;73.70
23713;DHT22;12035;49.978;8.298;2023-01-24T23:18:50;5.50;73.80
23713;DHT22;12035;49.978;8.298;2023-01-24T23:24:06;5.50;73.80
23713;DHT22;12035;49.978;8.298;2023-01-24T23:29:32;5.50;73.70
23713;DHT22;12035;49.978;8.298;2023-01-24T23:34:39;5.60;73.90
23713;DHT22;12035;49.978;8.298;2023-01-24T23:39:36;5.60;73.80
23713;DHT22;12035;49.978;8.298;2023-01-24T23:44:33;5.50;73.50
23713;DHT22;12035;49.978;8.298;2023-01-24T23:49:30;5.50;73.50
23713;DHT22;12035;49.978;8.298;2023-01-24T23:54:28;5.50;73.50
23713;DHT22;12035;49.978;8.298;2023-01-24T23:59:26;5.50;73.50
